sensor_id;sensor_type;location;lat;lon;timestamp;P1;durP1;ratioP1;P2;durP2;ratioP2
59998;SDS011;45859;51.378;6.736;2023-03-29T00:01:06;1.73;;;1.13;;
59998;SDS011;45859;51.378;6.736;2023-03-29T00:03:34;2.50;;;1.00;;
59998;SDS011;45859;51.378;6.736;2023-03-29T00:06:00;4.07;;;1.77;;
59998;SDS011;45859;51.378;6.736;2023-03-29T00:08:27;3.70;;;2.20;;
59998;SDS011;45859;51.378;6.736;2023-03-29T00:10:54;3.60;;;2.10;;
59998;SDS011;45859;51.378;6.736;2023-03-29T00:13:20;3.97;;;2.43;;
59998;SDS011;45859;51.378;6.736;2023-03-29T00:15:46;7.13;;;2.13;;
59998;SDS011;45859;51.378;6.736;2023-03-29T00:18:12;3.97;;;1.70;;
59998;SDS011;45859;51.378;6.736;2023-03-29T00:20:37;3.97;;;1.63;;
59998;SDS011;45859;51.378;6.736;2023-03-29T00:23:03;4.77;;;2.10;;
59998;SDS011;45859;51.378;6.736;2023-03-29T00:25:29;4.33;;;1.67;;
59998;SDS011;45859;51.378;6.736;2023-03-29T00:27:54;4.57;;;2.03;;
59998;SDS011;45859;51.378;6.736;2023-03-29T00:30:20;3.97;;;1.70;;
59998;SDS011;45859;51.378;6.736;2023-03-29T00:32:45;3.33;;;1.70;;
59998;SDS011;45859;51.378;6.736;2023-03-29T00:35:11;3.07;;;1.97;;
59998;SDS011;45859;51.378;6.736;2023-03-29T00:37:36;1.63;;;1.37;;
59998;SDS011;45859;51.378;6.736;2023-03-29T00:40:03;1.50;;;1.20;;
59998;SDS011;45859;51.378;6.736;2023-03-29T00:42:36;2.83;;;0.90;;
59998;SDS011;45859;51.378;6.736;2023-03-29T00:47:35;3.47;;;1.53;;
59998;SDS011;45859;51.378;6.736;2023-03-29T00:50:21;5.33;;;2.17;;
59998;SDS011;45859;51.378;6.736;2023-03-29T00:52:58;1.63;;;1.20;;
59998;SDS011;45859;51.378;6.736;2023-03-29T00:55:33;5.23;;;1.97;;
59998;SDS011;45859;51.378;6.736;2023-03-29T00:58:03;2.07;;;0.87;;
59998;SDS011;45859;51.378;6.736;2023-03-29T01:00:34;4.33;;;1.70;;
59998;SDS011;45859;51.378;6.736;2023-03-29T01:03:05;3.13;;;1.77;;
59998;SDS011;45859;51.378;6.736;2023-03-29T01:05:39;5.27;;;1.80;;
59998;SDS011;45859;51.378;6.736;2023-03-29T01:08:11;2.10;;;1.42;;
59998;SDS011;45859;51.378;6.736;2023-03-29T01:10:50;4.07;;;2.27;;
59998;SDS011;45859;51.378;6.736;2023-03-29T01:13:40;2.10;;;1.60;;
59998;SDS011;45859;51.378;6.736;2023-03-29T01:16:12;3.93;;;1.03;;
59998;SDS011;45859;51.378;6.736;2023-03-29T01:18:39;2.00;;;1.00;;
59998;SDS011;45859;51.378;6.736;2023-03-29T01:27:14;1.97;;;1.10;;
59998;SDS011;45859;51.378;6.736;2023-03-29T01:29:33;3.20;;;1.77;;
59998;SDS011;45859;51.378;6.736;2023-03-29T01:32:25;4.27;;;1.50;;
59998;SDS011;45859;51.378;6.736;2023-03-29T01:34:59;3.03;;;2.00;;
59998;SDS011;45859;51.378;6.736;2023-03-29T01:37:38;2.37;;;1.20;;
59998;SDS011;45859;51.378;6.736;2023-03-29T01:40:09;2.63;;;1.63;;
59998;SDS011;45859;51.378;6.736;2023-03-29T01:42:40;2.00;;;1.03;;
59998;SDS011;45859;51.378;6.736;2023-03-29T01:45:35;2.43;;;1.20;;
59998;SDS011;45859;51.378;6.736;2023-03-29T01:48:19;4.17;;;1.50;;
59998;SDS011;45859;51.378;6.736;2023-03-29T01:50:54;1.53;;;1.03;;
59998;SDS011;45859;51.378;6.736;2023-03-29T01:56:05;2.87;;;1.87;;
59998;SDS011;45859;51.378;6.736;2023-03-29T01:58:37;2.20;;;1.03;;
59998;SDS011;45859;51.378;6.736;2023-03-29T02:01:08;4.47;;;2.17;;
59998;SDS011;45859;51.378;6.736;2023-03-29T02:03:38;1.23;;;1.10;;
59998;SDS011;45859;51.378;6.736;2023-03-29T02:08:35;4.77;;;2.10;;
59998;SDS011;45859;51.378;6.736;2023-03-29T02:11:05;3.53;;;1.33;;
59998;SDS011;45859;51.378;6.736;2023-03-29T02:13:32;4.60;;;1.83;;
59998;SDS011;45859;51.378;6.736;2023-03-29T02:15:58;2.80;;;2.00;;
59998;SDS011;45859;51.378;6.736;2023-03-29T02:18:27;3.73;;;1.90;;
59998;SDS011;45859;51.378;6.736;2023-03-29T02:20:54;3.57;;;2.10;;
59998;SDS011;45859;51.378;6.736;2023-03-29T02:23:23;2.10;;;1.37;;
59998;SDS011;45859;51.378;6.736;2023-03-29T02:26:13;4.77;;;1.73;;
59998;SDS011;45859;51.378;6.736;2023-03-29T02:28:39;2.27;;;1.13;;
59998;SDS011;45859;51.378;6.736;2023-03-29T02:33:58;2.30;;;0.63;;
59998;SDS011;45859;51.378;6.736;2023-03-29T02:38:56;2.67;;;1.60;;
59998;SDS011;45859;51.378;6.736;2023-03-29T02:41:25;2.25;;;1.60;;
59998;SDS011;45859;51.378;6.736;2023-03-29T02:43:52;5.60;;;2.30;;
59998;SDS011;45859;51.378;6.736;2023-03-29T02:46:20;3.60;;;1.17;;
59998;SDS011;45859;51.378;6.736;2023-03-29T02:48:47;1.30;;;1.10;;
59998;SDS011;45859;51.378;6.736;2023-03-29T02:51:17;4.63;;;1.63;;
59998;SDS011;45859;51.378;6.736;2023-03-29T02:53:57;1.17;;;0.88;;
59998;SDS011;45859;51.378;6.736;2023-03-29T02:56:29;2.90;;;2.00;;
59998;SDS011;45859;51.378;6.736;2023-03-29T02:59:08;2.80;;;1.97;;
59998;SDS011;45859;51.378;6.736;2023-03-29T03:01:36;3.90;;;1.53;;
59998;SDS011;45859;51.378;6.736;2023-03-29T03:04:02;4.40;;;1.90;;
59998;SDS011;45859;51.378;6.736;2023-03-29T03:06:28;3.83;;;1.83;;
59998;SDS011;45859;51.378;6.736;2023-03-29T03:08:54;3.53;;;1.20;;
59998;SDS011;45859;51.378;6.736;2023-03-29T03:11:20;3.03;;;1.50;;
59998;SDS011;45859;51.378;6.736;2023-03-29T03:13:47;3.70;;;1.60;;
59998;SDS011;45859;51.378;6.736;2023-03-29T03:16:13;3.37;;;1.20;;
59998;SDS011;45859;51.378;6.736;2023-03-29T03:18:39;5.07;;;2.03;;
59998;SDS011;45859;51.378;6.736;2023-03-29T03:21:04;2.33;;;1.13;;
59998;SDS011;45859;51.378;6.736;2023-03-29T03:23:30;6.60;;;2.37;;
59998;SDS011;45859;51.378;6.736;2023-03-29T03:25:56;9.10;;;1.47;;
59998;SDS011;45859;51.378;6.736;2023-03-29T03:28:23;5.77;;;1.17;;
59998;SDS011;45859;51.378;6.736;2023-03-29T03:30:51;3.47;;;1.37;;
59998;SDS011;45859;51.378;6.736;2023-03-29T03:33:18;3.40;;;1.33;;
59998;SDS011;45859;51.378;6.736;2023-03-29T03:35:44;1.77;;;0.87;;
59998;SDS011;45859;51.378;6.736;2023-03-29T03:38:13;1.47;;;0.80;;
59998;SDS011;45859;51.378;6.736;2023-03-29T03:40:40;1.90;;;0.93;;
59998;SDS011;45859;51.378;6.736;2023-03-29T03:43:06;1.03;;;0.73;;
59998;SDS011;45859;51.378;6.736;2023-03-29T03:45:32;3.13;;;1.67;;
59998;SDS011;45859;51.378;6.736;2023-03-29T03:47:58;3.30;;;1.60;;
59998;SDS011;45859;51.378;6.736;2023-03-29T03:50:23;1.83;;;1.20;;
59998;SDS011;45859;51.378;6.736;2023-03-29T03:52:49;2.30;;;1.77;;
59998;SDS011;45859;51.378;6.736;2023-03-29T03:55:15;0.47;;;0.47;;
59998;SDS011;45859;51.378;6.736;2023-03-29T03:57:40;4.70;;;2.17;;
59998;SDS011;45859;51.378;6.736;2023-03-29T04:00:06;4.60;;;1.53;;
59998;SDS011;45859;51.378;6.736;2023-03-29T04:02:43;3.40;;;1.73;;
59998;SDS011;45859;51.378;6.736;2023-03-29T04:05:09;3.40;;;1.00;;
59998;SDS011;45859;51.378;6.736;2023-03-29T04:07:35;3.70;;;1.40;;
59998;SDS011;45859;51.378;6.736;2023-03-29T04:10:01;4.73;;;1.37;;
59998;SDS011;45859;51.378;6.736;2023-03-29T04:12:27;3.53;;;0.87;;
59998;SDS011;45859;51.378;6.736;2023-03-29T04:14:52;1.00;;;0.87;;
59998;SDS011;45859;51.378;6.736;2023-03-29T04:17:18;5.17;;;1.87;;
59998;SDS011;45859;51.378;6.736;2023-03-29T04:19:43;4.03;;;2.33;;
59998;SDS011;45859;51.378;6.736;2023-03-29T04:22:09;3.30;;;1.40;;
59998;SDS011;45859;51.378;6.736;2023-03-29T04:24:35;4.07;;;1.57;;
59998;SDS011;45859;51.378;6.736;2023-03-29T04:27:00;2.93;;;1.83;;
59998;SDS011;45859;51.378;6.736;2023-03-29T04:29:26;3.67;;;2.20;;
59998;SDS011;45859;51.378;6.736;2023-03-29T04:31:53;4.43;;;2.37;;
59998;SDS011;45859;51.378;6.736;2023-03-29T04:34:18;3.63;;;1.83;;
59998;SDS011;45859;51.378;6.736;2023-03-29T04:36:44;1.77;;;1.33;;
59998;SDS011;45859;51.378;6.736;2023-03-29T04:39:10;3.87;;;2.23;;
59998;SDS011;45859;51.378;6.736;2023-03-29T04:41:36;2.17;;;1.40;;
59998;SDS011;45859;51.378;6.736;2023-03-29T04:44:01;3.10;;;1.90;;
59998;SDS011;45859;51.378;6.736;2023-03-29T04:46:27;2.30;;;1.50;;
59998;SDS011;45859;51.378;6.736;2023-03-29T04:48:53;2.90;;;1.93;;
59998;SDS011;45859;51.378;6.736;2023-03-29T04:51:19;3.30;;;1.87;;
59998;SDS011;45859;51.378;6.736;2023-03-29T04:53:47;5.83;;;2.43;;
59998;SDS011;45859;51.378;6.736;2023-03-29T04:56:14;5.17;;;3.13;;
59998;SDS011;45859;51.378;6.736;2023-03-29T04:58:40;12.63;;;2.83;;
59998;SDS011;45859;51.378;6.736;2023-03-29T05:01:06;3.30;;;1.87;;
59998;SDS011;45859;51.378;6.736;2023-03-29T05:03:33;8.17;;;1.97;;
59998;SDS011;45859;51.378;6.736;2023-03-29T05:06:03;4.60;;;2.50;;
59998;SDS011;45859;51.378;6.736;2023-03-29T05:08:33;1.50;;;1.37;;
59998;SDS011;45859;51.378;6.736;2023-03-29T05:11:02;5.60;;;2.53;;
59998;SDS011;45859;51.378;6.736;2023-03-29T05:13:28;6.63;;;2.20;;
59998;SDS011;45859;51.378;6.736;2023-03-29T05:15:53;2.97;;;1.87;;
59998;SDS011;45859;51.378;6.736;2023-03-29T05:18:21;6.00;;;2.07;;
59998;SDS011;45859;51.378;6.736;2023-03-29T05:20:46;3.73;;;2.90;;
59998;SDS011;45859;51.378;6.736;2023-03-29T05:23:14;7.83;;;3.30;;
59998;SDS011;45859;51.378;6.736;2023-03-29T05:25:41;6.77;;;3.93;;
59998;SDS011;45859;51.378;6.736;2023-03-29T05:28:07;7.30;;;3.77;;
59998;SDS011;45859;51.378;6.736;2023-03-29T05:30:33;2.37;;;1.77;;
59998;SDS011;45859;51.378;6.736;2023-03-29T05:33:00;2.87;;;2.00;;
59998;SDS011;45859;51.378;6.736;2023-03-29T05:35:26;5.23;;;2.43;;
59998;SDS011;45859;51.378;6.736;2023-03-29T05:37:53;6.20;;;2.17;;
59998;SDS011;45859;51.378;6.736;2023-03-29T05:40:19;7.50;;;3.30;;
59998;SDS011;45859;51.378;6.736;2023-03-29T05:42:45;7.27;;;3.03;;
59998;SDS011;45859;51.378;6.736;2023-03-29T05:45:11;4.83;;;2.77;;
59998;SDS011;45859;51.378;6.736;2023-03-29T05:47:36;3.73;;;2.30;;
59998;SDS011;45859;51.378;6.736;2023-03-29T05:50:02;2.47;;;1.67;;
59998;SDS011;45859;51.378;6.736;2023-03-29T05:52:28;5.47;;;3.23;;
59998;SDS011;45859;51.378;6.736;2023-03-29T05:54:54;3.53;;;2.10;;
59998;SDS011;45859;51.378;6.736;2023-03-29T05:57:20;3.47;;;2.57;;
59998;SDS011;45859;51.378;6.736;2023-03-29T05:59:46;8.70;;;4.20;;
59998;SDS011;45859;51.378;6.736;2023-03-29T06:02:12;5.23;;;3.13;;
59998;SDS011;45859;51.378;6.736;2023-03-29T06:04:39;5.00;;;2.37;;
59998;SDS011;45859;51.378;6.736;2023-03-29T06:07:05;7.13;;;3.60;;
59998;SDS011;45859;51.378;6.736;2023-03-29T06:09:32;10.00;;;4.70;;
59998;SDS011;45859;51.378;6.736;2023-03-29T06:11:58;5.10;;;2.70;;
59998;SDS011;45859;51.378;6.736;2023-03-29T06:14:25;5.53;;;2.80;;
59998;SDS011;45859;51.378;6.736;2023-03-29T06:16:51;4.20;;;2.50;;
59998;SDS011;45859;51.378;6.736;2023-03-29T06:19:17;8.13;;;4.87;;
59998;SDS011;45859;51.378;6.736;2023-03-29T06:21:43;5.10;;;3.53;;
59998;SDS011;45859;51.378;6.736;2023-03-29T06:24:08;8.37;;;4.63;;
59998;SDS011;45859;51.378;6.736;2023-03-29T06:26:34;12.60;;;4.10;;
59998;SDS011;45859;51.378;6.736;2023-03-29T06:28:59;3.97;;;2.30;;
59998;SDS011;45859;51.378;6.736;2023-03-29T06:31:25;3.27;;;1.70;;
59998;SDS011;45859;51.378;6.736;2023-03-29T06:33:51;3.27;;;2.37;;
59998;SDS011;45859;51.378;6.736;2023-03-29T06:36:16;2.93;;;1.87;;
59998;SDS011;45859;51.378;6.736;2023-03-29T06:38:44;2.87;;;2.10;;
59998;SDS011;45859;51.378;6.736;2023-03-29T06:41:09;9.77;;;3.87;;
59998;SDS011;45859;51.378;6.736;2023-03-29T06:43:35;7.63;;;3.30;;
59998;SDS011;45859;51.378;6.736;2023-03-29T06:46:02;4.40;;;2.37;;
59998;SDS011;45859;51.378;6.736;2023-03-29T06:48:28;2.37;;;1.60;;
59998;SDS011;45859;51.378;6.736;2023-03-29T06:50:54;4.70;;;2.47;;
59998;SDS011;45859;51.378;6.736;2023-03-29T06:53:20;4.20;;;1.60;;
59998;SDS011;45859;51.378;6.736;2023-03-29T06:55:46;6.60;;;1.77;;
59998;SDS011;45859;51.378;6.736;2023-03-29T06:58:12;6.97;;;2.03;;
59998;SDS011;45859;51.378;6.736;2023-03-29T07:00:37;5.83;;;2.63;;
59998;SDS011;45859;51.378;6.736;2023-03-29T07:03:06;2.93;;;1.97;;
59998;SDS011;45859;51.378;6.736;2023-03-29T07:05:37;7.00;;;2.67;;
59998;SDS011;45859;51.378;6.736;2023-03-29T07:08:06;9.43;;;3.83;;
59998;SDS011;45859;51.378;6.736;2023-03-29T07:10:35;6.73;;;2.80;;
59998;SDS011;45859;51.378;6.736;2023-03-29T07:13:03;14.07;;;2.93;;
59998;SDS011;45859;51.378;6.736;2023-03-29T07:15:31;6.57;;;3.67;;
59998;SDS011;45859;51.378;6.736;2023-03-29T07:17:57;4.47;;;2.30;;
59998;SDS011;45859;51.378;6.736;2023-03-29T07:20:23;2.83;;;1.47;;
59998;SDS011;45859;51.378;6.736;2023-03-29T07:22:51;5.80;;;1.70;;
59998;SDS011;45859;51.378;6.736;2023-03-29T07:25:18;3.40;;;2.30;;
59998;SDS011;45859;51.378;6.736;2023-03-29T07:27:45;3.60;;;2.10;;
59998;SDS011;45859;51.378;6.736;2023-03-29T07:30:13;5.33;;;2.43;;
59998;SDS011;45859;51.378;6.736;2023-03-29T07:32:41;4.63;;;2.60;;
59998;SDS011;45859;51.378;6.736;2023-03-29T07:35:08;4.07;;;2.13;;
59998;SDS011;45859;51.378;6.736;2023-03-29T07:37:36;6.50;;;2.90;;
59998;SDS011;45859;51.378;6.736;2023-03-29T07:40:02;3.67;;;1.90;;
59998;SDS011;45859;51.378;6.736;2023-03-29T07:42:36;4.77;;;2.37;;
59998;SDS011;45859;51.378;6.736;2023-03-29T07:45:03;3.03;;;1.87;;
59998;SDS011;45859;51.378;6.736;2023-03-29T07:47:29;5.50;;;1.97;;
59998;SDS011;45859;51.378;6.736;2023-03-29T07:49:55;8.37;;;5.90;;
59998;SDS011;45859;51.378;6.736;2023-03-29T07:52:20;4.30;;;1.57;;
59998;SDS011;45859;51.378;6.736;2023-03-29T07:54:46;4.27;;;2.20;;
59998;SDS011;45859;51.378;6.736;2023-03-29T07:57:12;3.27;;;2.20;;
59998;SDS011;45859;51.378;6.736;2023-03-29T07:59:38;4.07;;;2.47;;
59998;SDS011;45859;51.378;6.736;2023-03-29T08:02:03;3.30;;;1.63;;
59998;SDS011;45859;51.378;6.736;2023-03-29T08:04:30;7.57;;;5.23;;
59998;SDS011;45859;51.378;6.736;2023-03-29T08:06:56;3.47;;;1.60;;
59998;SDS011;45859;51.378;6.736;2023-03-29T08:09:21;1.77;;;1.67;;
59998;SDS011;45859;51.378;6.736;2023-03-29T08:11:47;7.23;;;3.17;;
59998;SDS011;45859;51.378;6.736;2023-03-29T08:14:13;3.63;;;1.93;;
59998;SDS011;45859;51.378;6.736;2023-03-29T08:16:39;4.20;;;1.83;;
59998;SDS011;45859;51.378;6.736;2023-03-29T08:19:04;6.57;;;2.37;;
59998;SDS011;45859;51.378;6.736;2023-03-29T08:21:31;2.73;;;1.70;;
59998;SDS011;45859;51.378;6.736;2023-03-29T08:23:56;3.43;;;1.97;;
59998;SDS011;45859;51.378;6.736;2023-03-29T08:26:22;3.37;;;2.57;;
59998;SDS011;45859;51.378;6.736;2023-03-29T08:28:48;9.00;;;5.10;;
59998;SDS011;45859;51.378;6.736;2023-03-29T08:31:13;8.13;;;6.10;;
59998;SDS011;45859;51.378;6.736;2023-03-29T08:33:39;9.50;;;3.10;;
59998;SDS011;45859;51.378;6.736;2023-03-29T08:36:06;4.70;;;2.57;;
59998;SDS011;45859;51.378;6.736;2023-03-29T08:38:32;2.30;;;1.77;;
59998;SDS011;45859;51.378;6.736;2023-03-29T08:40:58;10.67;;;5.93;;
59998;SDS011;45859;51.378;6.736;2023-03-29T08:43:33;7.77;;;6.00;;
59998;SDS011;45859;51.378;6.736;2023-03-29T08:46:24;2.85;;;2.00;;
59998;SDS011;45859;51.378;6.736;2023-03-29T08:48:58;2.50;;;1.83;;
59998;SDS011;45859;51.378;6.736;2023-03-29T08:51:27;2.10;;;1.63;;
59998;SDS011;45859;51.378;6.736;2023-03-29T08:54:06;3.47;;;2.43;;
59998;SDS011;45859;51.378;6.736;2023-03-29T08:56:40;9.57;;;5.63;;
59998;SDS011;45859;51.378;6.736;2023-03-29T08:59:20;9.40;;;5.77;;
59998;SDS011;45859;51.378;6.736;2023-03-29T09:01:50;3.75;;;2.25;;
59998;SDS011;45859;51.378;6.736;2023-03-29T09:04:21;5.17;;;2.40;;
59998;SDS011;45859;51.378;6.736;2023-03-29T09:06:51;5.70;;;2.53;;
59998;SDS011;45859;51.378;6.736;2023-03-29T09:09:19;3.30;;;2.00;;
59998;SDS011;45859;51.378;6.736;2023-03-29T09:14:47;7.00;;;3.35;;
59998;SDS011;45859;51.378;6.736;2023-03-29T09:25:19;7.03;;;3.27;;
59998;SDS011;45859;51.378;6.736;2023-03-29T09:28:18;4.40;;;2.33;;
59998;SDS011;45859;51.378;6.736;2023-03-29T09:30:55;8.87;;;5.80;;
59998;SDS011;45859;51.378;6.736;2023-03-29T09:33:57;9.87;;;5.77;;
59998;SDS011;45859;51.378;6.736;2023-03-29T09:39:16;8.52;;;5.63;;
59998;SDS011;45859;51.378;6.736;2023-03-29T09:44:21;10.33;;;5.50;;
59998;SDS011;45859;51.378;6.736;2023-03-29T09:47:24;8.23;;;5.50;;
59998;SDS011;45859;51.378;6.736;2023-03-29T09:49:45;8.67;;;5.20;;
59998;SDS011;45859;51.378;6.736;2023-03-29T09:52:14;3.97;;;3.05;;
59998;SDS011;45859;51.378;6.736;2023-03-29T09:54:41;7.73;;;5.10;;
59998;SDS011;45859;51.378;6.736;2023-03-29T09:57:10;9.33;;;5.70;;
59998;SDS011;45859;51.378;6.736;2023-03-29T09:59:39;9.03;;;5.10;;
59998;SDS011;45859;51.378;6.736;2023-03-29T10:02:09;6.57;;;4.97;;
59998;SDS011;45859;51.378;6.736;2023-03-29T10:04:37;7.57;;;5.00;;
59998;SDS011;45859;51.378;6.736;2023-03-29T10:07:03;8.67;;;5.10;;
59998;SDS011;45859;51.378;6.736;2023-03-29T10:09:30;6.37;;;4.50;;
59998;SDS011;45859;51.378;6.736;2023-03-29T10:11:57;6.60;;;4.87;;
59998;SDS011;45859;51.378;6.736;2023-03-29T10:17:16;10.27;;;5.20;;
59998;SDS011;45859;51.378;6.736;2023-03-29T10:19:50;8.00;;;4.73;;
59998;SDS011;45859;51.378;6.736;2023-03-29T10:22:23;8.37;;;4.70;;
59998;SDS011;45859;51.378;6.736;2023-03-29T10:27:20;7.20;;;4.87;;
59998;SDS011;45859;51.378;6.736;2023-03-29T10:29:49;10.17;;;4.80;;
59998;SDS011;45859;51.378;6.736;2023-03-29T10:34:54;9.03;;;4.83;;
59998;SDS011;45859;51.378;6.736;2023-03-29T10:37:38;6.78;;;4.78;;
59998;SDS011;45859;51.378;6.736;2023-03-29T10:40:05;6.93;;;4.93;;
59998;SDS011;45859;51.378;6.736;2023-03-29T10:42:45;6.50;;;4.57;;
59998;SDS011;45859;51.378;6.736;2023-03-29T10:45:23;7.23;;;4.67;;
59998;SDS011;45859;51.378;6.736;2023-03-29T10:47:53;5.43;;;4.93;;
59998;SDS011;45859;51.378;6.736;2023-03-29T10:50:20;7.37;;;4.90;;
59998;SDS011;45859;51.378;6.736;2023-03-29T10:52:46;8.53;;;5.20;;
59998;SDS011;45859;51.378;6.736;2023-03-29T10:55:14;7.40;;;5.10;;
59998;SDS011;45859;51.378;6.736;2023-03-29T11:00:39;7.73;;;5.60;;
59998;SDS011;45859;51.378;6.736;2023-03-29T11:03:21;5.37;;;4.87;;
59998;SDS011;45859;51.378;6.736;2023-03-29T11:11:12;6.97;;;5.00;;
59998;SDS011;45859;51.378;6.736;2023-03-29T11:14:07;8.17;;;5.00;;
59998;SDS011;45859;51.378;6.736;2023-03-29T11:19:41;7.87;;;4.80;;
59998;SDS011;45859;51.378;6.736;2023-03-29T11:22:22;10.57;;;5.17;;
59998;SDS011;45859;51.378;6.736;2023-03-29T11:33:29;9.33;;;5.27;;
59998;SDS011;45859;51.378;6.736;2023-03-29T11:36:14;7.77;;;4.77;;
59998;SDS011;45859;51.378;6.736;2023-03-29T11:38:44;7.63;;;4.80;;
59998;SDS011;45859;51.378;6.736;2023-03-29T11:41:27;8.40;;;4.70;;
59998;SDS011;45859;51.378;6.736;2023-03-29T11:46:45;7.30;;;3.93;;
59998;SDS011;45859;51.378;6.736;2023-03-29T11:54:47;5.67;;;3.20;;
59998;SDS011;45859;51.378;6.736;2023-03-29T11:57:17;6.33;;;3.07;;
59998;SDS011;45859;51.378;6.736;2023-03-29T12:02:38;5.10;;;3.05;;
59998;SDS011;45859;51.378;6.736;2023-03-29T12:10:21;6.00;;;3.00;;
59998;SDS011;45859;51.378;6.736;2023-03-29T12:15:28;4.80;;;3.10;;
59998;SDS011;45859;51.378;6.736;2023-03-29T12:18:09;5.97;;;2.95;;
59998;SDS011;45859;51.378;6.736;2023-03-29T12:20:41;4.43;;;3.20;;
59998;SDS011;45859;51.378;6.736;2023-03-29T12:23:13;7.90;;;3.30;;
59998;SDS011;45859;51.378;6.736;2023-03-29T12:39:02;4.03;;;2.80;;
59998;SDS011;45859;51.378;6.736;2023-03-29T12:41:33;6.68;;;3.40;;
59998;SDS011;45859;51.378;6.736;2023-03-29T12:44:00;6.90;;;3.23;;
59998;SDS011;45859;51.378;6.736;2023-03-29T12:46:30;5.20;;;3.20;;
59998;SDS011;45859;51.378;6.736;2023-03-29T12:49:06;5.50;;;3.00;;
59998;SDS011;45859;51.378;6.736;2023-03-29T12:51:38;5.63;;;3.00;;
59998;SDS011;45859;51.378;6.736;2023-03-29T12:54:11;6.80;;;2.80;;
59998;SDS011;45859;51.378;6.736;2023-03-29T13:02:17;4.47;;;2.55;;
59998;SDS011;45859;51.378;6.736;2023-03-29T13:09:48;10.85;;;3.38;;
59998;SDS011;45859;51.378;6.736;2023-03-29T13:12:29;10.15;;;3.45;;
59998;SDS011;45859;51.378;6.736;2023-03-29T13:15:04;8.70;;;3.53;;
59998;SDS011;45859;51.378;6.736;2023-03-29T13:17:57;5.05;;;3.20;;
59998;SDS011;45859;51.378;6.736;2023-03-29T13:20:46;3.53;;;2.80;;
59998;SDS011;45859;51.378;6.736;2023-03-29T13:40:23;7.35;;;3.22;;
59998;SDS011;45859;51.378;6.736;2023-03-29T13:42:57;6.28;;;3.00;;
59998;SDS011;45859;51.378;6.736;2023-03-29T13:48:20;4.32;;;2.80;;
59998;SDS011;45859;51.378;6.736;2023-03-29T13:50:55;5.47;;;2.33;;
59998;SDS011;45859;51.378;6.736;2023-03-29T13:53:31;3.60;;;2.53;;
59998;SDS011;45859;51.378;6.736;2023-03-29T13:56:01;4.63;;;2.70;;
59998;SDS011;45859;51.378;6.736;2023-03-29T14:03:43;3.90;;;2.25;;
59998;SDS011;45859;51.378;6.736;2023-03-29T14:06:20;4.35;;;2.47;;
59998;SDS011;45859;51.378;6.736;2023-03-29T14:08:51;2.53;;;1.92;;
59998;SDS011;45859;51.378;6.736;2023-03-29T14:11:22;3.42;;;2.05;;
59998;SDS011;45859;51.378;6.736;2023-03-29T14:13:53;6.55;;;3.05;;
59998;SDS011;45859;51.378;6.736;2023-03-29T14:16:19;5.15;;;2.13;;
59998;SDS011;45859;51.378;6.736;2023-03-29T14:18:45;4.05;;;1.63;;
59998;SDS011;45859;51.378;6.736;2023-03-29T14:21:15;3.55;;;1.48;;
59998;SDS011;45859;51.378;6.736;2023-03-29T14:23:43;2.95;;;1.65;;
59998;SDS011;45859;51.378;6.736;2023-03-29T14:26:14;5.45;;;1.67;;
59998;SDS011;45859;51.378;6.736;2023-03-29T14:28:46;2.17;;;1.48;;
59998;SDS011;45859;51.378;6.736;2023-03-29T14:33:58;5.97;;;2.40;;
59998;SDS011;45859;51.378;6.736;2023-03-29T14:36:26;2.88;;;1.70;;
59998;SDS011;45859;51.378;6.736;2023-03-29T14:38:56;2.00;;;1.45;;
59998;SDS011;45859;51.378;6.736;2023-03-29T14:41:32;2.42;;;1.50;;
59998;SDS011;45859;51.378;6.736;2023-03-29T14:43:59;4.70;;;1.98;;
59998;SDS011;45859;51.378;6.736;2023-03-29T14:46:27;2.70;;;1.30;;
59998;SDS011;45859;51.378;6.736;2023-03-29T14:48:53;2.33;;;1.47;;
59998;SDS011;45859;51.378;6.736;2023-03-29T14:51:19;3.22;;;1.65;;
59998;SDS011;45859;51.378;6.736;2023-03-29T14:53:50;2.22;;;1.75;;
59998;SDS011;45859;51.378;6.736;2023-03-29T14:56:16;1.60;;;1.40;;
59998;SDS011;45859;51.378;6.736;2023-03-29T14:58:48;2.17;;;1.48;;
59998;SDS011;45859;51.378;6.736;2023-03-29T15:01:15;1.45;;;1.35;;
59998;SDS011;45859;51.378;6.736;2023-03-29T15:03:42;2.28;;;1.80;;
59998;SDS011;45859;51.378;6.736;2023-03-29T15:06:08;2.97;;;1.85;;
59998;SDS011;45859;51.378;6.736;2023-03-29T15:08:37;3.67;;;1.75;;
59998;SDS011;45859;51.378;6.736;2023-03-29T15:11:13;2.92;;;1.60;;
59998;SDS011;45859;51.378;6.736;2023-03-29T15:13:43;3.75;;;1.63;;
59998;SDS011;45859;51.378;6.736;2023-03-29T15:16:15;2.83;;;1.70;;
59998;SDS011;45859;51.378;6.736;2023-03-29T15:18:43;4.03;;;1.88;;
59998;SDS011;45859;51.378;6.736;2023-03-29T15:21:11;4.07;;;1.60;;
59998;SDS011;45859;51.378;6.736;2023-03-29T15:26:14;1.73;;;1.33;;
59998;SDS011;45859;51.378;6.736;2023-03-29T15:29:04;3.25;;;1.48;;
59998;SDS011;45859;51.378;6.736;2023-03-29T15:31:39;3.63;;;1.25;;
59998;SDS011;45859;51.378;6.736;2023-03-29T15:34:06;1.60;;;1.30;;
59998;SDS011;45859;51.378;6.736;2023-03-29T15:36:37;2.70;;;1.38;;
59998;SDS011;45859;51.378;6.736;2023-03-29T15:39:08;3.95;;;1.50;;
59998;SDS011;45859;51.378;6.736;2023-03-29T15:41:38;1.40;;;1.23;;
59998;SDS011;45859;51.378;6.736;2023-03-29T15:44:05;2.58;;;1.80;;
59998;SDS011;45859;51.378;6.736;2023-03-29T15:46:31;1.90;;;1.17;;
59998;SDS011;45859;51.378;6.736;2023-03-29T15:48:56;3.67;;;1.80;;
59998;SDS011;45859;51.378;6.736;2023-03-29T15:51:22;5.82;;;1.40;;
59998;SDS011;45859;51.378;6.736;2023-03-29T15:53:48;1.75;;;1.48;;
59998;SDS011;45859;51.378;6.736;2023-03-29T15:56:17;2.75;;;1.52;;
59998;SDS011;45859;51.378;6.736;2023-03-29T15:58:47;3.95;;;2.33;;
59998;SDS011;45859;51.378;6.736;2023-03-29T16:01:29;4.00;;;2.00;;
59998;SDS011;45859;51.378;6.736;2023-03-29T16:03:58;2.87;;;1.77;;
59998;SDS011;45859;51.378;6.736;2023-03-29T16:06:24;2.38;;;1.70;;
59998;SDS011;45859;51.378;6.736;2023-03-29T16:08:50;2.83;;;1.63;;
59998;SDS011;45859;51.378;6.736;2023-03-29T16:11:16;3.45;;;1.90;;
59998;SDS011;45859;51.378;6.736;2023-03-29T16:13:41;3.28;;;1.70;;
59998;SDS011;45859;51.378;6.736;2023-03-29T16:16:09;3.63;;;2.10;;
59998;SDS011;45859;51.378;6.736;2023-03-29T16:18:35;3.90;;;2.10;;
59998;SDS011;45859;51.378;6.736;2023-03-29T16:21:01;3.47;;;2.20;;
59998;SDS011;45859;51.378;6.736;2023-03-29T16:23:27;2.83;;;2.40;;
59998;SDS011;45859;51.378;6.736;2023-03-29T16:25:53;4.25;;;2.38;;
59998;SDS011;45859;51.378;6.736;2023-03-29T16:28:19;3.40;;;1.98;;
59998;SDS011;45859;51.378;6.736;2023-03-29T16:30:45;3.50;;;2.00;;
59998;SDS011;45859;51.378;6.736;2023-03-29T16:33:12;2.67;;;1.88;;
59998;SDS011;45859;51.378;6.736;2023-03-29T16:35:38;2.33;;;1.90;;
59998;SDS011;45859;51.378;6.736;2023-03-29T16:38:04;3.72;;;1.80;;
59998;SDS011;45859;51.378;6.736;2023-03-29T16:40:30;2.90;;;1.90;;
59998;SDS011;45859;51.378;6.736;2023-03-29T16:42:57;3.00;;;2.13;;
59998;SDS011;45859;51.378;6.736;2023-03-29T16:45:23;4.38;;;1.92;;
59998;SDS011;45859;51.378;6.736;2023-03-29T16:47:49;4.50;;;2.00;;
59998;SDS011;45859;51.378;6.736;2023-03-29T16:50:16;5.80;;;2.00;;
59998;SDS011;45859;51.378;6.736;2023-03-29T16:52:43;5.53;;;2.15;;
59998;SDS011;45859;51.378;6.736;2023-03-29T16:55:10;4.00;;;2.40;;
59998;SDS011;45859;51.378;6.736;2023-03-29T16:57:37;4.55;;;2.60;;
59998;SDS011;45859;51.378;6.736;2023-03-29T17:00:04;4.15;;;2.30;;
59998;SDS011;45859;51.378;6.736;2023-03-29T17:02:31;4.20;;;2.00;;
59998;SDS011;45859;51.378;6.736;2023-03-29T17:04:57;5.63;;;2.33;;
59998;SDS011;45859;51.378;6.736;2023-03-29T17:07:22;3.53;;;2.20;;
59998;SDS011;45859;51.378;6.736;2023-03-29T17:09:49;4.60;;;3.33;;
59998;SDS011;45859;51.378;6.736;2023-03-29T17:12:14;4.88;;;2.30;;
59998;SDS011;45859;51.378;6.736;2023-03-29T17:14:40;5.57;;;2.10;;
59998;SDS011;45859;51.378;6.736;2023-03-29T17:17:06;3.55;;;2.20;;